createdAt,value
2018-04-25T00:00:23.358Z,13.90
2018-04-25T00:02:51.487Z,13.90
2018-04-25T00:05:19.702Z,13.90
2018-04-25T00:07:47.833Z,13.90
2018-04-25T00:10:15.983Z,14.00
2018-04-25T00:12:44.596Z,14.10
2018-04-25T00:15:12.744Z,14.10
2018-04-25T00:17:41.627Z,14.00
2018-04-25T00:20:09.771Z,14.00
2018-04-25T00:22:37.890Z,14.00
2018-04-25T00:25:08.021Z,13.90
2018-04-25T00:27:36.167Z,13.90
2018-04-25T00:30:04.317Z,13.90
2018-04-25T00:32:32.458Z,14.00
2018-04-25T00:35:00.609Z,14.00
2018-04-25T00:37:28.741Z,13.90
2018-04-25T00:39:56.883Z,14.00
2018-04-25T00:42:25.008Z,14.00
2018-04-25T00:44:53.919Z,13.90
2018-04-25T00:47:22.066Z,13.80
2018-04-25T00:49:50.220Z,13.80
2018-04-25T00:52:18.355Z,13.80
2018-04-25T00:54:46.498Z,13.90
2018-04-25T00:57:15.825Z,13.90
2018-04-25T00:59:43.995Z,14.00
2018-04-25T01:02:12.432Z,14.00
2018-04-25T01:04:41.711Z,14.00
2018-04-25T01:07:09.836Z,14.00
2018-04-25T01:09:39.459Z,14.00
2018-04-25T01:12:07.591Z,14.00
2018-04-25T01:14:35.739Z,14.00
2018-04-25T01:17:03.886Z,14.00
2018-04-25T01:19:32.034Z,13.90
2018-04-25T01:22:00.924Z,14.00
2018-04-25T01:24:30.348Z,13.90
2018-04-25T01:27:01.220Z,14.00
2018-04-25T01:29:29.404Z,13.90
2018-04-25T01:31:58.376Z,13.90
2018-04-25T01:34:26.519Z,13.80
2018-04-25T01:37:05.843Z,13.80
2018-04-25T01:39:41.336Z,13.70
2018-04-25T01:42:21.195Z,13.70
2018-04-25T01:44:53.831Z,13.50
2018-04-25T01:47:27.618Z,13.50
2018-04-25T01:50:21.127Z,13.60
2018-04-25T01:53:02.123Z,13.60
2018-04-25T01:55:41.975Z,13.60
2018-04-25T01:58:22.679Z,13.50
2018-04-25T02:01:02.683Z,13.60
2018-04-25T02:03:42.647Z,13.50
2018-04-25T02:06:10.799Z,13.50
2018-04-25T02:08:38.922Z,13.50
2018-04-25T02:11:07.835Z,13.70
2018-04-25T02:13:35.972Z,13.70
2018-04-25T02:16:04.134Z,13.80
2018-04-25T02:18:35.198Z,13.70
2018-04-25T02:21:04.099Z,13.70
2018-04-25T02:23:32.984Z,13.80
2018-04-25T02:26:01.903Z,13.80
2018-04-25T02:28:30.031Z,13.80
2018-04-25T02:30:58.182Z,13.90
2018-04-25T02:33:26.303Z,14.00
2018-04-25T02:35:56.440Z,14.00
2018-04-25T02:38:28.293Z,14.00
2018-04-25T02:40:56.447Z,14.00
2018-04-25T02:43:25.340Z,14.00
2018-04-25T02:45:54.254Z,13.90
2018-04-25T02:48:22.379Z,13.90
2018-04-25T02:50:50.990Z,14.10
2018-04-25T02:53:19.900Z,14.20
2018-04-25T02:55:48.079Z,14.20
2018-04-25T02:58:16.203Z,14.10
2018-04-25T03:00:44.348Z,14.10
2018-04-25T03:03:14.324Z,14.10
2018-04-25T03:05:43.244Z,14.10
2018-04-25T03:08:17.125Z,14.20
2018-04-25T03:10:47.899Z,14.10
2018-04-25T03:13:16.519Z,14.20
2018-04-25T03:15:44.675Z,14.10
2018-04-25T03:18:12.805Z,14.10
2018-04-25T03:20:42.425Z,14.10
2018-04-25T03:23:10.564Z,14.10
2018-04-25T03:25:39.457Z,14.10
2018-04-25T03:28:08.374Z,14.10
2018-04-25T03:30:36.490Z,14.10
2018-04-25T03:33:04.646Z,14.20
2018-04-25T03:35:32.793Z,14.20
2018-04-25T03:38:00.948Z,14.20
2018-04-25T03:40:29.841Z,14.20
2018-04-25T03:42:58.760Z,14.20
2018-04-25T03:45:26.875Z,14.10
2018-04-25T03:47:55.027Z,14.30
2018-04-25T03:50:23.159Z,14.30
2018-04-25T03:52:51.316Z,14.40
2018-04-25T03:58:20.619Z,14.30
2018-04-25T04:00:48.748Z,14.20
2018-04-25T04:03:19.496Z,14.30
2018-04-25T04:05:47.622Z,14.30
2018-04-25T04:08:15.779Z,14.20
2018-04-25T04:10:44.698Z,14.30
2018-04-25T04:13:13.612Z,14.30
2018-04-25T04:15:42.254Z,14.30
2018-04-25T04:18:10.404Z,14.30
2018-04-25T04:20:38.530Z,14.10
2018-04-25T04:23:07.039Z,13.90
2018-04-25T04:25:35.168Z,13.80
2018-04-25T04:28:03.463Z,13.70
2018-04-25T04:33:39.949Z,13.60
2018-04-25T04:36:10.607Z,13.60
2018-04-25T04:38:38.742Z,13.50
2018-04-25T04:41:06.880Z,13.50
2018-04-25T04:43:34.991Z,13.50
2018-04-25T04:46:03.189Z,13.50
2018-04-25T04:48:32.402Z,13.60
2018-04-25T04:51:00.525Z,13.60
2018-04-25T04:53:28.860Z,13.60
2018-04-25T04:55:56.983Z,13.70
2018-04-25T04:58:25.120Z,13.80
2018-04-25T05:00:54.644Z,13.80
2018-04-25T05:03:23.673Z,13.90
2018-04-25T05:05:54.269Z,14.00
2018-04-25T05:08:22.473Z,13.90
2018-04-25T05:10:50.545Z,13.90
2018-04-25T05:13:18.697Z,14.00
2018-04-25T05:15:46.794Z,14.10
2018-04-25T05:18:14.926Z,14.00
2018-04-25T05:20:43.035Z,14.10
2018-04-25T05:23:11.162Z,14.10
2018-04-25T05:25:39.265Z,14.20
2018-04-25T05:28:07.410Z,14.20
2018-04-25T05:30:36.273Z,14.10
2018-04-25T05:33:04.457Z,14.10
2018-04-25T05:35:32.556Z,14.30
2018-04-25T05:38:00.686Z,14.30
2018-04-25T05:40:29.705Z,14.30
2018-04-25T05:42:57.880Z,14.40
2018-04-25T05:45:26.910Z,14.50
2018-04-25T05:47:55.038Z,14.50
2018-04-25T05:50:23.478Z,14.40
2018-04-25T05:52:51.622Z,14.30
2018-04-25T05:55:19.725Z,14.40
2018-04-25T05:57:47.878Z,14.40
2018-04-25T06:00:15.995Z,14.50
2018-04-25T06:02:45.716Z,14.60
2018-04-25T06:05:16.308Z,14.60
2018-04-25T06:07:44.442Z,14.70
2018-04-25T06:10:12.556Z,14.70
2018-04-25T06:12:40.700Z,14.80
2018-04-25T06:15:08.812Z,14.90
2018-04-25T06:17:36.952Z,14.90
2018-04-25T06:20:05.064Z,15.00
2018-04-25T06:22:33.963Z,15.50
2018-04-25T06:25:03.356Z,16.10
2018-04-25T06:27:32.251Z,16.60
2018-04-25T06:30:01.144Z,16.50
2018-04-25T20:50:01.735Z,11.30
2018-04-25T20:52:30.928Z,11.60
2018-04-25T20:54:59.021Z,11.60
2018-04-25T20:57:27.150Z,11.50
2018-04-25T20:59:56.020Z,11.50
2018-04-25T21:02:24.200Z,11.50
2018-04-25T21:04:52.248Z,11.40
2018-04-25T21:07:20.389Z,11.30
2018-04-25T21:09:48.492Z,11.30
2018-04-25T21:12:16.618Z,11.20
2018-04-25T21:14:44.725Z,11.20
2018-04-25T21:17:12.866Z,11.10
2018-04-25T21:19:41.816Z,10.80
2018-04-25T21:22:09.953Z,10.70
2018-04-25T21:24:38.082Z,10.70
2018-04-25T21:27:06.950Z,10.60
2018-04-25T21:29:35.074Z,10.50
2018-04-25T21:32:03.996Z,10.60
2018-04-25T21:34:32.627Z,10.50
2018-04-25T21:37:01.450Z,10.40
2018-04-25T21:39:29.578Z,10.30
2018-04-25T21:42:00.824Z,10.10
2018-04-25T21:44:28.943Z,10.10
2018-04-25T21:46:57.042Z,10.20
2018-04-25T21:49:25.165Z,10.10
2018-04-25T21:51:54.020Z,9.90
2018-04-25T21:54:22.137Z,9.90
2018-04-25T21:56:50.245Z,9.70
2018-04-25T21:59:18.366Z,9.80
2018-04-25T22:01:47.225Z,9.80
2018-04-25T22:04:15.357Z,9.80
2018-04-25T22:06:43.464Z,9.80
2018-04-25T22:09:11.590Z,9.80
2018-04-25T22:11:40.449Z,9.70
2018-04-25T22:14:09.872Z,9.70
2018-04-25T22:16:38.737Z,9.80
2018-04-25T22:19:06.866Z,9.70
2018-04-25T22:21:34.976Z,9.60
2018-04-25T22:24:03.291Z,9.60
2018-04-25T22:26:32.160Z,9.60
2018-04-25T22:29:02.022Z,9.60
2018-04-25T22:31:31.578Z,9.50
2018-04-25T22:33:59.708Z,9.50
2018-04-25T22:36:27.794Z,9.60
2018-04-25T22:38:55.909Z,9.50
2018-04-25T22:41:24.009Z,9.40
2018-04-25T22:43:52.884Z,9.50
2018-04-25T22:46:21.756Z,9.60
2018-04-25T22:48:50.671Z,9.60
2018-04-25T22:51:18.747Z,9.50
2018-04-25T22:53:47.632Z,9.40
2018-04-25T22:56:16.497Z,9.50
2018-04-25T22:58:44.615Z,9.50
2018-04-25T23:01:12.716Z,9.60
2018-04-25T23:03:40.841Z,9.40
2018-04-25T23:06:10.447Z,9.40
2018-04-25T23:08:39.333Z,9.50
2018-04-25T23:11:08.242Z,9.50
2018-04-25T23:13:37.123Z,9.80
2018-04-25T23:16:05.993Z,10.00
2018-04-25T23:18:34.117Z,10.00
2018-04-25T23:21:04.099Z,10.20
2018-04-25T23:23:32.237Z,10.30
2018-04-25T23:26:00.333Z,10.30
2018-04-25T23:28:28.469Z,10.40
2018-04-25T23:30:57.173Z,10.40
2018-04-25T23:33:25.296Z,10.40
2018-04-25T23:35:54.237Z,10.50
2018-04-25T23:38:22.357Z,10.60
2018-04-25T23:40:50.469Z,10.70
2018-04-25T23:43:18.601Z,10.70
2018-04-25T23:45:46.785Z,10.70
2018-04-25T23:48:14.860Z,10.80
2018-04-25T23:50:42.970Z,10.80
2018-04-25T23:53:11.093Z,10.80
2018-04-25T23:55:41.177Z,10.80
2018-04-25T23:58:09.807Z,10.70
